Alamo, Nevada Weather observations

Data are for observation ending at time listed.
 Day   Time    Ave.   Ave.  Ave.  Vector   Max.   Stn.    Total    Solar   Ave.  
  of    of     Air    Rel.  Wind   Wind    Wind   Baro.  Precip.   Rad.    Soil  
Year   Day     Temp.  Hum.  Speed  Dir.    Gust   Pres.                    Temp. 
2015   (PST)    F      %     mph   deg.    mph     mb.     in.     W/m2     F   
------------------------------------------------------------------------------
 241   10:40   93.3    22    1.5   165      9.1   896.2    0.00     102    77.1
 241   10:50   93.5    21    2.1   166      9.5   896.0    0.00     112    77.6
 241   11:00   94.1    21    1.6   173      6.4   895.9    0.00     127    78.2
 241   11:10   94.6    22    2.2   181      8.6   895.8    0.00     174    78.8
 241   11:20   94.0    22    2.7   185      8.7   895.6    0.00     200    79.7
 241   11:30   94.7    20    2.4   162      8.0   895.5    0.00     198    80.5
 241   11:40   94.8    21    2.3   173      8.3   895.4    0.00     291    81.3
 241   11:50   94.5    21    2.5   178     11.2   895.3    0.00     604    82.0
 241   12:00   95.0    20    2.1   147      8.7   895.2    0.00     770    82.7
 241   12:10   96.3    20    2.3   178      8.2   895.1    0.00     811    83.9
 241   12:20   95.4    21    2.6   190      7.3   895.1    0.00     572    85.3
 241   12:30   96.0    19    1.9   151      6.9   895.1    0.00     923    86.4
 241   12:40   96.1    19    2.1   171      8.7   895.6    0.00     604    87.5
 241   12:50   95.9    19    2.2   172      6.4   896.3    0.00     389    88.4
 241   13:00   93.9    21    2.5   180     10.5   895.9    0.00     435    88.9
 241   13:10   96.0    19    1.7   164      5.9   895.3    0.00     604    89.0
 241   13:20   94.7    21    2.7   178      8.6   895.1    0.00     288    89.3
 241   13:30   93.9    22    1.9   186      7.5   895.0    0.00     316    89.5
 241   13:40   95.5    19    1.6   162      6.8   894.8    0.00     788    89.5
 241   13:50   96.1    19    2.2   181      9.1   894.7    0.00     327    89.9
 241   14:00   94.8    18    1.3   169      5.3   894.5    0.00     220    90.3
 241   14:10   96.2    18    1.4   172      5.4   894.3    0.00     630    90.2
 241   14:20   97.2    18    3.3   186     11.0   894.3    0.00     661    90.3
 241   14:30   97.4    17    3.5   195      8.6   894.1    0.00     688    90.9
 241   14:40   97.8    18    2.5   201      8.0   893.9    0.00     515    91.6
 241   14:50   96.5    19    1.8   172      7.5   893.7    0.00     562    92.2
 241   15:00   97.7    18    3.0   188      6.9   893.4    0.00     608    92.6
 241   15:10   97.2    18    3.3   198     10.8   893.5    0.00     635    93.1
 241   15:20   97.4    17    3.2   197      8.5   894.6    0.00     321    93.5
 241   15:30   96.2    18    3.7   194      8.7   893.9    0.00     534    93.7
 241   15:40   98.0    18    2.8   189      8.1   893.7    0.00     620    93.6
 241   15:50   97.0    19    2.7   193      7.1   893.5    0.00     463    93.7
 241   16:00   96.1    18    1.6   182      6.1   893.3    0.00     473    93.5
 241   16:10   96.8    18    3.4   197     12.9   893.3    0.00     482    93.1
 241   16:20   96.0    17    4.5   195     10.7   893.2    0.00     365    92.5
 241   16:30   95.1    18    3.7   198      8.1   893.2    0.00     382    91.9
 241   16:40   96.0    16    3.5   204     10.7   893.2    0.00     336    91.3
 241   16:50   95.7    16    3.9   202     10.8   893.3    0.00     221    90.7
 241   17:00   95.4    16    4.5   205     12.9   893.3    0.00     250    90.2
 241   17:10   95.4    16    4.8   206     10.6   893.3    0.00     221    89.7
 241   17:20   95.6    15    4.7   209     11.8   893.3    0.00     163    89.2
 241   17:30   95.3    15    5.6   205     12.8   893.2    0.00     139    88.8
 241   17:40   94.1    16    4.3   202     10.4   893.2    0.00     105    88.4
 241   17:50   94.1    15    5.1   211     10.1   893.2    0.00      94    88.0
 241   18:00   93.7    16    2.9   200      8.6   893.2    0.00      38    87.7
 241   18:10   91.6    18    3.3   199      8.7   893.2    0.00       9    87.2
 241   18:20   92.6    15    2.9   207      8.3   893.3    0.00       2    86.8
 241   18:30   92.0    14    3.3   217      9.0   893.3    0.00       0    86.4
 241   18:40   92.1    14    3.8   215      9.0   893.3    0.00       0    86.0
 241   18:50   91.9    14    4.1   216      9.6   893.4    0.00       0    85.7
 241   19:00   91.6    14    3.5   215      9.0   893.5    0.00       0    85.3
 241   19:10   91.1    15    2.7   208     10.2   893.5    0.00       0    85.0
 241   19:20   89.5    17    1.4   200      5.8   893.6    0.00       0    84.7
 241   19:30   89.5    16    2.7   217      6.8   893.7    0.00       0    84.4
 241   19:40   90.1    15    3.8   216      9.0   893.8    0.00       0    84.1
 241   19:50   90.2    15    3.3   212      7.5   894.0    0.00       0    83.8
 241   20:00   90.0    15    3.1   214      8.5   894.1    0.00       0    83.5
 241   20:10   89.5    16    2.4   206      8.0   894.1    0.00       0    83.3
 241   20:20   88.7    16    2.3   202      7.5   894.2    0.00       0    83.0
 241   20:30   87.2    18    1.5   183      4.7   894.3    0.00       0    82.8
 241   20:40   85.4    19    0.8   170      3.9   894.4    0.00       0    82.5
 241   20:50   84.3    20    0.6   168      2.7   894.4    0.00       0    82.3
 241   21:00   83.6    20    0.4   157      2.2   894.5    0.00       0    82.0
 241   21:10   82.6    21    0.5   152      3.0   894.5    0.00       0    81.8
 241   21:20   82.5    22    0.2   133      0.7   894.6    0.00       0    81.5
 241   21:30   80.6    23    0.1    69      1.2   894.6    0.00       0    81.3
 241   21:40   80.2    22    0.4   132      1.8   894.6    0.00       0    81.0
 241   21:50   81.0    21    0.5   171      3.0   894.6    0.00       0    80.7
 241   22:00   81.1    21    0.4   177      2.0   894.7    0.00       0    80.5
 241   22:10   80.2    23    1.3   178      5.2   894.8    0.00       0    80.2
 241   22:20   78.8    25    0.9   188      3.4   894.8    0.00       0    80.0
 241   22:30   78.1    25    0.6   186      2.1   894.8    0.00       0    79.8
 241   22:40   77.4    26    0.6   182      3.4   894.8    0.00       0    79.5
 241   22:50   76.9    26    0.7   208      4.5   894.8    0.00       0    79.2
 241   23:00   77.2    26    0.9   228      2.4   894.9    0.00       0    79.0
 241   23:10   78.3    23    0.9   144      2.7   894.9    0.00       0    78.8
 241   23:20   78.9    23    1.4   203      4.1   895.0    0.00       0    78.6
 241   23:30   77.6    25    0.6   205      2.3   895.1    0.00       0    78.4
 241   23:40   76.2    27    0.4   211      2.0   895.2    0.00       0    78.2
 241   23:50   75.5    27    1.5    51      3.5   895.2    0.00       0    78.0
 242    0:00   75.9    26    1.2   219      2.5   895.2    0.00       0    77.8
 242    0:10   75.8    27    0.4   330      1.6   895.7    0.00       0    77.7
 242    0:20   74.9    28    1.4   227      3.7   896.0    0.00       0    77.5
 242    0:30   74.2    30    0.8   224      3.0   895.8    0.00       0    77.3
 242    0:40   73.6    30    0.5     8      1.4   895.6    0.00       0    77.1
 242    0:50   72.7    32    0.6   242      2.0   895.6    0.00       0    76.9
 242    1:00   72.0    33    0.6   138      2.0   895.6    0.00       0    76.7
 242    1:10   72.2    32    1.4   217      3.5   895.7    0.00       0    76.5
 242    1:20   72.1    32    0.6   205      2.3   895.9    0.00       0    76.4
 242    1:30   70.6    35    0.0   155      0.7   894.9    0.00       0    76.2
 242    1:40   69.7    34    0.0   279      0.5   894.5    0.00       0    76.1
 242    1:50   69.7    35    0.3   265      1.5   894.4    0.00       0    75.9
 242    2:00   69.9    35    0.6   229      2.1   894.4    0.00       0    75.7
 242    2:10   70.3    35    0.3   190      2.5   894.4    0.00       0    75.5
 242    2:20   70.5    35    0.1   196      1.5   894.5    0.00       0    75.4
 242    2:30   70.9    33    0.5   223      2.3   894.5    0.00       0    75.3
 242    2:40   71.9    32    0.4    90      2.9   894.5    0.00       0    75.2
 242    2:50   71.9    32    1.1   207      3.9   894.5    0.00       0    75.1
 242    3:00   71.5    33    0.5   204      2.7   894.6    0.00       0    75.0
 242    3:10   71.5    32    0.3    60      1.3   894.5    0.00       0    74.9
 242    3:20   71.5    33    1.4    25      2.7   894.5    0.00       0    74.8
 242    3:30   71.3    33    2.1     7      3.8   894.6    0.00       0    74.8
 242    3:40   71.3    32    1.8     7      3.8   894.7    0.00       0    74.7
 242    3:50   70.8    33    1.2   340      3.1   894.7    0.00       0    74.6
 242    4:00   70.3    33    1.0   298      3.1   894.8    0.00       0    74.5
 242    4:10   70.1    34    1.4    52      2.9   894.7    0.00       0    74.4
 242    4:20   69.3    37    0.7    45      2.9   894.8    0.00       0    74.4
 242    4:30   68.8    39    0.8   354      1.8   894.8    0.00       0    74.2
 242    4:40   68.2    40    0.6    68      2.0   894.7    0.00       0    74.2
 242    4:50   67.8    40    0.6    21      1.5   894.6    0.00       0    74.0
 242    5:00   67.3    42    0.2   234      1.1   894.8    0.00       0    73.9
 242    5:10   66.8    43    0.5    24      1.5   895.0    0.00       0    73.8
 242    5:20   66.9    40    1.6    30      2.6   895.3    0.00       3    73.7
 242    5:30   66.7    42    1.3    28      3.7   895.5    0.00       9    73.6
 242    5:40   66.5    45    0.7   304      1.6   895.4    0.00      15    73.5
 242    5:50   66.1    46    0.0   290      0.6   895.5    0.00      25    73.4
 242    6:00   66.1    47    0.2    26      1.0   895.6    0.00      37    73.3
 242    6:10   66.1    48    0.2    11      1.1   895.7    0.00      48    73.3
 242    6:20   67.0    47    0.1   357      0.6   895.7    0.00      61    73.3
 242    6:30   67.5    47    0.5   342      2.0   895.8    0.00      71    73.3
 242    6:40   68.2    45    0.4   331      1.7   895.8    0.00      81    73.3
 242    6:50   68.2    48    0.5    44      1.4   895.9    0.00      84    73.4
 242    7:00   68.5    47    0.5    65      1.8   895.9    0.00      81    73.4
 242    7:10   69.1    48    0.1    53      1.4   895.8    0.00      81    73.5
 242    7:20   69.5    48    0.3   354      1.2   895.9    0.00      92    73.6
 242    7:30   70.2    46    0.8    69      2.3   895.9    0.00     132    73.7
 242    7:40   71.5    40    1.3    68      3.1   895.9    0.00     155    73.8
 242    7:50   73.5    36    1.7    22      3.1   895.9    0.00     163    74.0
 242    8:00   74.6    35    1.6    50      2.8   895.9    0.00     171    74.2
 242    8:10   76.6    31    0.8     1      1.9   895.8    0.00     164    74.5
 242    8:20   78.9    28    1.0   225      2.5   895.9    0.00     142    74.8
 242    8:30   80.3    26    2.7   215      5.0   895.9    0.00     153    75.0
 242    8:40   80.4    28    2.2   209      5.7   895.8    0.00     159    75.3
 242    8:50   81.2    29    1.6   198      4.9   895.8    0.00     182    75.5
 242    9:00   83.1    27    1.7   191      5.6   895.7    0.00     187    75.8
 242    9:10   84.8    24    1.7   180      5.7   895.8    0.00     174    76.2
 242    9:20   85.0    24    1.4   171      6.0   895.8    0.00     165    76.5
 242    9:30   85.0    23    2.0   148     10.7   895.7    0.00     168    76.7
 242    9:40   85.8    22    1.9   169      8.9   895.7    0.00     213    77.0
 242    9:50   86.2    22    1.8   168      8.6   895.6    0.00     267    77.3
 242   10:00   86.7    23    1.5   166      6.1   895.5    0.00     273    77.8
 242   10:10   87.3    22    1.7   160     11.5   895.4    0.00     291    78.2
 242   10:20   87.4    22    1.9   169      8.1   895.3    0.00     279    78.6
 242   10:30   87.1    22    1.4   178      7.8   895.3    0.00     266    79.1

Return to Alamo, Nevada graphs page.


Western Regional Climate Center,wrcc@dri.edu